createdAt,value
2022-07-25T00:02:21.016Z,77.70
2022-07-25T00:04:49.349Z,77.90
2022-07-25T00:07:17.516Z,77.80
2022-07-25T00:09:45.461Z,77.80
2022-07-25T00:12:14.066Z,78.10
2022-07-25T00:14:43.439Z,78.20
2022-07-25T00:17:11.440Z,78.30
2022-07-25T00:19:39.445Z,78.30
2022-07-25T00:22:07.509Z,78.40
2022-07-25T00:24:35.556Z,78.50
2022-07-25T00:27:03.822Z,78.50
2022-07-25T00:29:31.700Z,78.60
2022-07-25T00:32:01.048Z,79.10
2022-07-25T00:34:28.950Z,79.20
2022-07-25T00:36:56.833Z,79.60
2022-07-25T00:39:24.707Z,79.80
2022-07-25T00:41:52.652Z,80.10
2022-07-25T00:44:25.087Z,79.90
2022-07-25T00:46:53.507Z,79.90
2022-07-25T00:49:22.979Z,79.90
2022-07-25T00:51:51.470Z,80.10
2022-07-25T00:54:20.066Z,80.00
2022-07-25T00:56:49.656Z,79.90
2022-07-25T00:59:17.709Z,79.90
2022-07-25T01:01:48.241Z,80.00
2022-07-25T01:04:16.775Z,80.00
2022-07-25T01:06:46.098Z,80.40
2022-07-25T01:09:14.696Z,80.60
2022-07-25T01:11:42.633Z,80.60
2022-07-25T01:14:10.523Z,81.10
2022-07-25T01:16:38.522Z,80.60
2022-07-25T01:19:06.501Z,80.60
2022-07-25T01:21:39.117Z,80.80
2022-07-25T01:24:08.650Z,80.80
2022-07-25T01:26:37.150Z,80.90
2022-07-25T01:29:05.291Z,81.00
2022-07-25T01:31:33.491Z,81.30
2022-07-25T01:34:01.423Z,81.50
2022-07-25T01:36:29.479Z,81.60
2022-07-25T01:38:58.690Z,81.80
2022-07-25T01:41:26.603Z,82.10
2022-07-25T01:43:54.517Z,82.20
2022-07-25T01:46:22.423Z,82.40
2022-07-25T01:48:50.516Z,82.50
2022-07-25T01:51:20.471Z,82.50
2022-07-25T01:53:48.903Z,82.40
2022-07-25T01:56:20.840Z,82.60
2022-07-25T01:58:50.391Z,82.70
2022-07-25T02:01:19.395Z,82.90
2022-07-25T02:03:49.800Z,83.10
2022-07-25T02:06:19.192Z,83.10
2022-07-25T02:08:47.051Z,83.20
2022-07-25T02:11:15.037Z,83.10
2022-07-25T02:13:44.623Z,83.30
2022-07-25T02:16:12.901Z,83.20
2022-07-25T02:18:40.852Z,83.50
2022-07-25T02:21:14.563Z,83.40
2022-07-25T02:23:42.983Z,83.80
2022-07-25T02:26:10.999Z,83.90
2022-07-25T02:28:38.939Z,84.00
2022-07-25T02:31:09.241Z,84.30
2022-07-25T02:33:37.637Z,84.30
2022-07-25T02:36:05.801Z,84.40
2022-07-25T02:38:33.767Z,84.40
2022-07-25T02:41:01.761Z,84.70
2022-07-25T02:43:29.670Z,84.80
2022-07-25T02:45:57.811Z,85.00
2022-07-25T02:48:27.161Z,84.90
2022-07-25T02:50:55.121Z,85.10
2022-07-25T02:53:40.294Z,85.20
2022-07-25T02:56:10.877Z,85.30
2022-07-25T02:58:39.424Z,85.50
2022-07-25T03:01:07.879Z,85.70
2022-07-25T03:03:37.341Z,85.70
2022-07-25T03:06:05.750Z,85.90
2022-07-25T03:08:33.660Z,86.00
2022-07-25T03:11:01.588Z,86.00
2022-07-25T03:13:29.824Z,86.20
2022-07-25T03:15:57.762Z,86.20
2022-07-25T03:18:25.611Z,86.30
2022-07-25T03:20:54.920Z,86.20
2022-07-25T03:23:24.967Z,86.30
2022-07-25T03:25:52.833Z,86.50
2022-07-25T03:28:20.768Z,86.40
2022-07-25T03:30:48.654Z,86.60
2022-07-25T03:33:16.494Z,86.90
2022-07-25T03:35:46.912Z,86.90
2022-07-25T03:38:16.119Z,86.90
2022-07-25T03:40:44.125Z,87.00
2022-07-25T03:43:12.027Z,87.20
2022-07-25T03:45:40.137Z,87.20
2022-07-25T03:48:08.227Z,87.30
2022-07-25T03:50:36.183Z,87.20
2022-07-25T03:53:04.098Z,87.30
2022-07-25T03:55:33.372Z,87.40
2022-07-25T03:58:01.264Z,88.20
2022-07-25T04:00:29.247Z,87.60
2022-07-25T04:02:57.954Z,88.20
2022-07-25T04:05:25.978Z,88.30
2022-07-25T04:07:53.820Z,88.50
2022-07-25T04:10:21.907Z,88.40
2022-07-25T04:12:51.193Z,88.60
2022-07-25T04:15:19.159Z,88.70
2022-07-25T04:17:47.117Z,88.80
2022-07-25T04:20:15.003Z,89.10
2022-07-25T04:22:46.948Z,89.30
2022-07-25T04:25:15.147Z,89.60
2022-07-25T04:27:43.359Z,90.10
2022-07-25T04:30:13.976Z,90.20
2022-07-25T04:32:52.095Z,90.40
2022-07-25T04:35:19.985Z,90.60
2022-07-25T04:37:47.883Z,90.80
2022-07-25T04:40:15.849Z,91.00
2022-07-25T04:42:43.791Z,91.20
2022-07-25T04:45:13.931Z,91.50
2022-07-25T04:47:45.872Z,91.70
2022-07-25T04:50:13.896Z,91.90
2022-07-25T04:52:41.875Z,92.10
2022-07-25T04:55:10.363Z,92.40
2022-07-25T04:57:38.547Z,92.70
2022-07-25T05:00:08.880Z,93.10
2022-07-25T05:02:38.546Z,93.40
2022-07-25T05:05:08.472Z,93.60
2022-07-25T05:07:49.206Z,94.00
2022-07-25T05:10:17.286Z,94.40
2022-07-25T05:12:45.151Z,94.70
2022-07-25T05:15:13.527Z,95.10
2022-07-25T05:17:42.754Z,95.40
2022-07-25T05:20:12.116Z,95.50
2022-07-25T05:22:40.054Z,95.80
2022-07-25T05:25:10.115Z,95.90
2022-07-25T05:27:39.743Z,96.10
2022-07-25T05:30:10.339Z,96.20
2022-07-25T05:32:38.515Z,96.30
2022-07-25T05:35:09.865Z,96.60
2022-07-25T05:37:38.885Z,96.50
2022-07-25T05:40:08.395Z,96.60
2022-07-25T05:42:36.842Z,96.70
2022-07-25T05:45:05.482Z,96.80
2022-07-25T05:47:33.471Z,96.90
2022-07-25T05:50:02.267Z,97.00
2022-07-25T05:52:31.517Z,96.90
2022-07-25T05:54:59.617Z,96.90
2022-07-25T05:57:27.551Z,96.80
2022-07-25T05:59:55.462Z,96.70
2022-07-25T06:02:23.568Z,96.60
2022-07-25T06:04:51.618Z,96.50
2022-07-25T06:07:19.594Z,96.10
2022-07-25T06:09:48.865Z,96.20
2022-07-25T06:12:16.770Z,96.30
2022-07-25T06:14:45.438Z,96.20
2022-07-25T06:17:13.649Z,96.00
2022-07-25T06:19:41.710Z,96.30
2022-07-25T06:22:11.194Z,96.70
2022-07-25T06:24:39.216Z,96.90
2022-07-25T06:27:09.283Z,96.90
2022-07-25T06:29:38.130Z,97.10
2022-07-25T06:32:06.629Z,96.80
2022-07-25T06:34:34.682Z,96.80
2022-07-25T06:37:02.606Z,96.50
2022-07-25T06:39:30.773Z,95.90
2022-07-25T06:41:59.719Z,95.50
2022-07-25T06:44:28.975Z,95.50
2022-07-25T06:46:57.012Z,94.70
2022-07-25T06:49:24.985Z,94.80
2022-07-25T06:51:52.910Z,94.80
2022-07-25T06:54:20.871Z,94.70
2022-07-25T06:56:48.749Z,94.50
2022-07-25T06:59:16.649Z,94.00
2022-07-25T07:01:51.007Z,93.70
2022-07-25T07:04:19.506Z,93.80
2022-07-25T07:06:47.381Z,94.20
2022-07-25T07:09:15.333Z,94.30
2022-07-25T07:11:43.251Z,94.10
2022-07-25T07:14:11.207Z,94.00
2022-07-25T07:16:41.336Z,93.70
2022-07-25T07:19:11.991Z,93.40
2022-07-25T07:21:39.899Z,93.10
2022-07-25T07:24:22.100Z,92.90
2022-07-25T07:26:51.520Z,92.80
2022-07-25T07:29:19.398Z,92.80
2022-07-25T07:31:47.356Z,92.30
2022-07-25T07:34:16.838Z,92.10
2022-07-25T07:36:44.712Z,92.10
2022-07-25T07:39:12.713Z,92.00
2022-07-25T07:41:43.763Z,92.00
2022-07-25T07:44:11.785Z,92.10
2022-07-25T07:46:39.806Z,92.00
2022-07-25T07:49:08.142Z,91.80
2022-07-25T07:51:37.612Z,91.80
2022-07-25T07:54:23.748Z,91.90
2022-07-25T07:56:51.750Z,91.90
2022-07-25T07:59:19.695Z,91.80
2022-07-25T08:01:47.673Z,91.40
2022-07-25T08:04:15.648Z,91.40
2022-07-25T08:06:44.987Z,91.40
2022-07-25T08:09:12.898Z,90.80
2022-07-25T08:11:40.915Z,90.80
2022-07-25T08:14:09.472Z,90.70
2022-07-25T08:16:37.883Z,90.40
2022-07-25T08:19:05.932Z,90.30
2022-07-25T08:21:33.942Z,90.40
2022-07-25T08:24:03.378Z,90.00
2022-07-25T08:26:33.823Z,90.20
2022-07-25T08:29:18.297Z,90.20
2022-07-25T08:31:47.084Z,89.10
2022-07-25T08:34:15.071Z,88.10
2022-07-25T08:36:43.206Z,88.20
2022-07-25T08:39:12.458Z,87.30
2022-07-25T08:41:41.741Z,87.20
2022-07-25T08:44:10.161Z,86.20
2022-07-25T08:46:41.578Z,85.80
2022-07-25T08:49:10.520Z,85.00
2022-07-25T08:51:39.667Z,84.50
2022-07-25T08:54:08.326Z,84.10
2022-07-25T08:56:37.975Z,83.00
2022-07-25T08:59:05.856Z,83.00
2022-07-25T09:01:35.143Z,82.10
2022-07-25T09:04:04.894Z,81.00
2022-07-25T09:06:33.371Z,80.40
2022-07-25T09:09:04.612Z,80.30
2022-07-25T09:11:35.854Z,82.20
2022-07-25T09:14:08.405Z,80.30
2022-07-25T09:16:40.119Z,80.10
2022-07-25T09:19:10.616Z,79.80
2022-07-25T09:21:40.669Z,79.30
2022-07-25T09:24:13.504Z,78.10
2022-07-25T09:26:48.696Z,77.80
2022-07-25T09:29:24.670Z,77.50
2022-07-25T09:31:54.933Z,76.50
2022-07-25T09:34:34.514Z,76.00
2022-07-25T09:37:03.389Z,75.80
2022-07-25T09:39:46.489Z,75.90
2022-07-25T09:42:21.600Z,75.80
2022-07-25T09:45:02.863Z,75.70
2022-07-25T09:47:31.611Z,75.50
2022-07-25T09:49:59.534Z,75.90
2022-07-25T09:52:27.792Z,76.00
2022-07-25T09:54:55.739Z,75.60
2022-07-25T09:57:25.800Z,75.70
2022-07-25T09:59:53.930Z,75.60
2022-07-25T10:02:40.373Z,75.60
2022-07-25T10:05:15.858Z,75.70
2022-07-25T10:07:47.357Z,75.40
2022-07-25T10:10:29.436Z,75.20
2022-07-25T10:13:05.234Z,74.60
2022-07-25T10:15:49.112Z,74.10
2022-07-25T10:18:20.662Z,72.60
2022-07-25T10:20:50.050Z,73.00
2022-07-25T10:23:20.102Z,71.90
2022-07-25T10:25:49.330Z,71.90
2022-07-25T10:28:20.897Z,72.00
2022-07-25T10:30:58.134Z,71.70
2022-07-25T10:33:27.652Z,70.70
2022-07-25T10:36:06.250Z,68.70
2022-07-25T10:38:34.504Z,68.50
2022-07-25T10:41:03.325Z,68.30
2022-07-25T10:43:38.670Z,68.30
2022-07-25T10:46:14.056Z,68.30
2022-07-25T10:48:43.485Z,67.20
2022-07-25T10:51:13.740Z,66.20
2022-07-25T10:53:48.318Z,65.90
2022-07-25T10:56:19.790Z,65.50
2022-07-25T10:58:51.281Z,65.50
2022-07-25T11:01:24.781Z,65.00
2022-07-25T11:03:55.470Z,64.00
2022-07-25T11:06:35.637Z,63.70
2022-07-25T11:09:04.932Z,62.40
2022-07-25T11:11:37.743Z,62.80
2022-07-25T11:14:06.655Z,62.20
2022-07-25T11:16:34.604Z,61.90
2022-07-25T11:19:04.283Z,62.50
2022-07-25T11:21:32.505Z,61.60
2022-07-25T11:24:00.397Z,61.50
2022-07-25T11:26:28.658Z,61.60
2022-07-25T11:28:56.551Z,61.80
2022-07-25T11:31:24.815Z,62.30
2022-07-25T11:33:52.960Z,63.00
2022-07-25T11:36:22.351Z,63.50
2022-07-25T11:38:50.512Z,63.30
2022-07-25T11:41:29.576Z,62.80
2022-07-25T11:43:57.705Z,62.80
2022-07-25T11:46:25.773Z,62.90
2022-07-25T11:49:05.874Z,62.90
2022-07-25T11:51:38.697Z,63.40
2022-07-25T11:54:10.990Z,63.50
2022-07-25T11:56:43.033Z,63.70
2022-07-25T11:59:12.301Z,63.30
2022-07-25T12:01:41.805Z,63.40
2022-07-25T12:04:15.214Z,63.50
2022-07-25T12:06:46.129Z,63.40
2022-07-25T12:09:18.871Z,63.50
2022-07-25T12:11:48.438Z,63.80
2022-07-25T12:14:17.013Z,63.50
2022-07-25T12:16:45.168Z,63.00
2022-07-25T12:19:21.126Z,63.50
2022-07-25T12:21:50.408Z,63.60
2022-07-25T12:24:18.386Z,63.50
2022-07-25T12:26:46.250Z,62.20
2022-07-25T12:29:14.275Z,61.00
2022-07-25T12:31:42.167Z,61.00
2022-07-25T12:34:10.065Z,60.90
2022-07-25T12:36:43.741Z,61.30
2022-07-25T12:39:13.009Z,61.90
2022-07-25T12:41:42.424Z,61.50
2022-07-25T12:44:10.722Z,61.10
2022-07-25T12:46:40.230Z,61.10
2022-07-25T12:49:08.601Z,61.00
2022-07-25T12:51:36.682Z,60.80
2022-07-25T12:54:04.988Z,60.30
2022-07-25T12:56:35.303Z,60.50
2022-07-25T12:59:03.810Z,60.10
2022-07-25T13:01:32.031Z,60.00
2022-07-25T13:04:00.032Z,60.00
2022-07-25T13:06:34.407Z,60.50
2022-07-25T13:09:05.922Z,60.20
2022-07-25T13:11:35.419Z,60.10
2022-07-25T13:14:03.326Z,60.10
2022-07-25T13:16:31.336Z,59.50
2022-07-25T13:18:59.541Z,59.00
2022-07-25T13:21:27.431Z,58.90
2022-07-25T13:23:55.347Z,59.40
2022-07-25T13:26:23.323Z,59.90
2022-07-25T13:28:56.592Z,59.80
2022-07-25T13:31:28.091Z,59.50
2022-07-25T13:33:56.243Z,59.20
2022-07-25T13:36:24.239Z,59.40
2022-07-25T13:38:52.173Z,59.20
2022-07-25T13:41:20.066Z,59.10
2022-07-25T13:43:49.048Z,59.20
2022-07-25T13:46:18.532Z,59.60
2022-07-25T13:48:46.606Z,59.60
2022-07-25T13:51:14.913Z,59.50
2022-07-25T13:53:44.748Z,59.60
2022-07-25T13:56:14.090Z,59.70
2022-07-25T13:58:43.114Z,59.60
2022-07-25T14:01:12.548Z,59.70
2022-07-25T14:03:41.859Z,59.60
2022-07-25T14:06:12.132Z,59.20
2022-07-25T14:08:41.226Z,59.50
2022-07-25T14:11:09.614Z,59.50
2022-07-25T14:13:38.004Z,59.60
2022-07-25T14:16:06.728Z,59.70
2022-07-25T14:18:34.686Z,60.00
2022-07-25T14:21:04.118Z,60.30
2022-07-25T14:23:32.056Z,60.60
2022-07-25T14:26:00.360Z,60.30
2022-07-25T14:28:28.329Z,60.20
2022-07-25T14:30:56.562Z,59.90
2022-07-25T14:33:24.471Z,59.80
2022-07-25T14:35:52.407Z,59.80
2022-07-25T14:38:21.874Z,60.10
2022-07-25T14:40:49.877Z,60.60
2022-07-25T14:43:17.882Z,60.40
2022-07-25T14:45:45.887Z,60.40
2022-07-25T14:48:13.791Z,59.90
2022-07-25T14:50:41.695Z,59.70
2022-07-25T14:53:09.662Z,59.70
2022-07-25T14:55:39.132Z,59.70
2022-07-25T14:58:07.590Z,59.80
2022-07-25T15:00:35.573Z,59.50
2022-07-25T15:03:03.531Z,59.30
2022-07-25T15:05:31.439Z,59.50
2022-07-25T15:07:59.587Z,59.50
2022-07-25T15:10:27.518Z,59.40
2022-07-25T15:13:20.546Z,59.50
2022-07-25T15:15:44.689Z,59.50
2022-07-25T15:18:14.124Z,59.50
2022-07-25T15:20:42.417Z,59.50
2022-07-25T15:23:10.334Z,59.40
2022-07-25T15:26:01.131Z,59.20
2022-07-25T15:28:27.921Z,58.70
2022-07-25T15:30:56.112Z,58.40
2022-07-25T15:33:24.082Z,58.30
2022-07-25T15:35:52.237Z,58.60
2022-07-25T15:38:20.181Z,58.70
2022-07-25T15:40:48.458Z,58.90
2022-07-25T15:43:16.466Z,59.20
2022-07-25T15:45:46.859Z,59.30
2022-07-25T15:48:15.458Z,59.50
2022-07-25T15:50:45.033Z,59.20
2022-07-25T15:53:13.538Z,59.20
2022-07-25T15:55:42.532Z,59.10
2022-07-25T15:58:12.076Z,59.10
2022-07-25T16:00:40.737Z,59.30
2022-07-25T16:03:11.120Z,59.30
2022-07-25T16:05:39.261Z,59.20
2022-07-25T16:08:08.145Z,59.10
2022-07-25T16:10:36.680Z,59.30
2022-07-25T16:13:04.982Z,59.50
2022-07-25T16:15:32.950Z,59.30
2022-07-25T16:18:02.906Z,59.10
2022-07-25T16:20:33.867Z,59.00
2022-07-25T16:23:02.253Z,59.10
2022-07-25T16:25:30.706Z,58.60
2022-07-25T16:27:59.681Z,58.20
2022-07-25T16:30:27.693Z,58.20
2022-07-25T16:32:55.969Z,58.10
2022-07-25T16:35:24.174Z,57.90
2022-07-25T16:37:53.445Z,57.90
2022-07-25T16:40:22.973Z,57.60
2022-07-25T16:42:55.672Z,57.40
2022-07-25T16:45:23.708Z,57.00
2022-07-25T16:47:51.615Z,56.90
2022-07-25T16:50:19.679Z,57.00
2022-07-25T16:52:48.249Z,57.20
2022-07-25T16:55:17.844Z,57.50
2022-07-25T16:57:45.746Z,57.60
2022-07-25T17:00:14.380Z,57.80
2022-07-25T17:02:43.893Z,57.80
2022-07-25T17:05:11.851Z,57.50
2022-07-25T17:07:40.458Z,57.50
2022-07-25T17:10:09.397Z,57.50
2022-07-25T17:12:38.706Z,57.60
2022-07-25T17:15:07.941Z,57.50
2022-07-25T17:17:35.852Z,57.70
2022-07-25T17:20:04.138Z,57.90
2022-07-25T17:22:32.436Z,58.00
2022-07-25T17:25:00.408Z,58.10
2022-07-25T17:27:28.387Z,58.10
2022-07-25T17:29:57.764Z,58.10
2022-07-25T17:32:29.716Z,58.80
2022-07-25T17:34:58.259Z,58.20
2022-07-25T17:37:27.658Z,58.10
2022-07-25T17:39:55.721Z,58.20
2022-07-25T17:42:23.971Z,58.00
2022-07-25T17:44:52.187Z,58.00
2022-07-25T17:47:21.494Z,57.80
2022-07-25T17:49:51.211Z,57.70
2022-07-25T17:52:19.229Z,57.50
2022-07-25T17:54:47.141Z,57.50
2022-07-25T17:57:15.052Z,57.50
2022-07-25T17:59:43.073Z,57.70
2022-07-25T18:02:11.419Z,57.70
2022-07-25T18:04:40.724Z,57.80
2022-07-25T18:07:08.663Z,57.70
2022-07-25T18:09:36.860Z,57.70
2022-07-25T18:12:05.410Z,57.70
2022-07-25T18:14:34.528Z,57.30
2022-07-25T18:17:02.556Z,57.30
2022-07-25T18:19:32.471Z,57.30
2022-07-25T18:22:01.741Z,57.30
2022-07-25T18:24:30.226Z,57.20
2022-07-25T18:26:58.459Z,57.30
2022-07-25T18:29:26.335Z,57.20
2022-07-25T18:31:54.281Z,57.30
2022-07-25T18:34:22.209Z,57.30
2022-07-25T18:36:50.408Z,57.40
2022-07-25T18:39:19.696Z,57.60
2022-07-25T18:41:47.700Z,57.40
2022-07-25T18:44:15.903Z,57.40
2022-07-25T18:46:45.530Z,57.50
2022-07-25T18:49:14.047Z,57.40
2022-07-25T18:51:42.097Z,57.60
2022-07-25T18:54:10.330Z,57.60
2022-07-25T18:56:39.947Z,58.00
2022-07-25T18:59:08.219Z,58.10
2022-07-25T19:01:37.343Z,58.70
2022-07-25T19:04:06.211Z,57.90
2022-07-25T19:06:34.617Z,58.30
2022-07-25T19:09:02.600Z,58.00
2022-07-25T19:11:30.500Z,57.30
2022-07-25T19:13:59.717Z,57.10
2022-07-25T19:16:27.729Z,56.90
2022-07-25T19:18:55.756Z,56.70
2022-07-25T19:21:23.715Z,56.80
2022-07-25T19:23:51.663Z,57.00
2022-07-25T19:26:20.170Z,57.00
2022-07-25T19:28:48.233Z,57.10
2022-07-25T19:31:17.927Z,57.20
2022-07-25T19:33:46.531Z,57.10
2022-07-25T19:36:14.703Z,57.20
2022-07-25T19:38:42.597Z,56.90
2022-07-25T19:41:10.539Z,57.30
2022-07-25T19:43:38.407Z,57.20
2022-07-25T19:46:06.487Z,57.30
2022-07-25T19:48:35.901Z,57.50
2022-07-25T19:51:03.916Z,57.50
2022-07-25T19:53:32.530Z,57.70
2022-07-25T19:56:01.264Z,57.80
2022-07-25T19:58:29.158Z,58.00
2022-07-25T20:00:57.018Z,57.80
2022-07-25T20:03:24.957Z,58.10
2022-07-25T20:05:54.162Z,58.50
2022-07-25T20:08:22.074Z,58.60
2022-07-25T20:10:50.039Z,58.80
2022-07-25T20:13:18.019Z,58.60
2022-07-25T20:15:45.930Z,58.80
2022-07-25T20:18:18.910Z,58.90
2022-07-25T20:20:47.691Z,59.10
2022-07-25T20:23:17.022Z,59.20
2022-07-25T20:25:45.306Z,59.30
2022-07-25T20:28:13.206Z,59.60
2022-07-25T20:30:41.593Z,59.70
2022-07-25T20:33:10.011Z,59.60
2022-07-25T20:35:38.560Z,60.00
2022-07-25T20:38:09.380Z,60.20
2022-07-25T20:40:46.300Z,60.20
2022-07-25T20:43:16.324Z,60.40
2022-07-25T20:45:44.430Z,60.70
2022-07-25T20:48:12.408Z,60.90
2022-07-25T20:50:41.130Z,61.20
2022-07-25T20:53:09.665Z,61.40
2022-07-25T20:55:39.328Z,61.80
2022-07-25T20:58:07.470Z,61.80
2022-07-25T21:00:35.434Z,62.20
2022-07-25T21:03:03.574Z,62.30
2022-07-25T21:05:31.885Z,62.50
2022-07-25T21:07:59.915Z,62.40
2022-07-25T21:10:28.006Z,62.50
2022-07-25T21:12:57.263Z,62.90
2022-07-25T21:15:25.489Z,63.10
2022-07-25T21:17:53.405Z,63.20
2022-07-25T21:20:21.371Z,63.30
2022-07-25T21:22:49.358Z,63.40
2022-07-25T21:25:17.266Z,63.50
2022-07-25T21:27:45.159Z,63.60
2022-07-25T21:30:15.178Z,64.40
2022-07-25T21:32:43.521Z,63.90
2022-07-25T21:35:12.092Z,64.10
2022-07-25T21:37:40.048Z,64.20
2022-07-25T21:40:09.446Z,64.30
2022-07-25T21:42:37.824Z,64.40
2022-07-25T21:45:06.837Z,64.60
2022-07-25T21:47:36.069Z,64.60
2022-07-25T21:50:24.918Z,64.90
2022-07-25T21:52:53.368Z,64.90
2022-07-25T21:55:21.802Z,64.90
2022-07-25T21:57:51.172Z,65.10
2022-07-25T22:00:20.074Z,65.20
2022-07-25T22:02:49.692Z,65.40
2022-07-25T22:05:19.061Z,65.50
2022-07-25T22:07:48.172Z,65.60
2022-07-25T22:10:18.534Z,65.60
2022-07-25T22:12:47.018Z,65.90
2022-07-25T22:15:15.101Z,66.00
2022-07-25T22:17:48.980Z,66.30
2022-07-25T22:20:19.559Z,66.40
2022-07-25T22:22:47.844Z,66.40
2022-07-25T22:25:15.841Z,66.50
2022-07-25T22:27:43.785Z,66.50
2022-07-25T22:30:18.185Z,66.80
2022-07-25T22:32:47.505Z,66.90
2022-07-25T22:35:15.759Z,67.00
2022-07-25T22:37:45.188Z,67.10
2022-07-25T22:40:14.586Z,67.30
2022-07-25T22:42:42.683Z,67.30
2022-07-25T22:45:11.646Z,67.40
2022-07-25T22:47:39.653Z,67.50
2022-07-25T22:50:09.502Z,67.60
2022-07-25T22:52:37.431Z,67.80
2022-07-25T22:55:07.501Z,67.80
2022-07-25T22:57:37.514Z,68.00
2022-07-25T23:00:08.103Z,68.10
2022-07-25T23:02:36.180Z,68.10
2022-07-25T23:05:04.563Z,68.20
2022-07-25T23:07:33.050Z,68.20
2022-07-25T23:10:01.939Z,68.40
2022-07-25T23:12:31.179Z,68.50
2022-07-25T23:14:59.039Z,68.70
2022-07-25T23:17:26.910Z,68.80
2022-07-25T23:19:57.035Z,68.90
2022-07-25T23:22:26.426Z,69.10
2022-07-25T23:24:54.281Z,69.00
2022-07-25T23:27:22.434Z,69.40
2022-07-25T23:29:51.660Z,67.50
2022-07-25T23:32:19.809Z,67.30
2022-07-25T23:34:47.788Z,67.50
2022-07-25T23:37:15.685Z,67.90
2022-07-25T23:39:43.706Z,68.00
2022-07-25T23:42:11.539Z,67.70
2022-07-25T23:44:39.514Z,67.70
2022-07-25T23:47:10.023Z,67.70
2022-07-25T23:49:38.638Z,67.60
2022-07-25T23:52:06.779Z,67.40
2022-07-25T23:54:34.815Z,66.90
2022-07-25T23:57:02.896Z,66.10
2022-07-25T23:59:30.811Z,66.20
